Time;durP1;ratioP1;P1;durP2;ratioP2;P2;SDS_P1;SDS_P2;PMS_P1;PMS_P2;Temp;Humidity;BMP_temperature;BMP_pressure;BME280_temperature;BME280_humidity;BME280_pressure;Samples;Min_cycle;Max_cycle;Signal;HPM_P1;HPM_P2
2021/09/21 00:00:59;;;;;;;7.55;6.05;;;;;;;14.73;51.63;94207.41;5034542;28;20044;-76
2021/09/21 00:03:24;;;;;;;9.48;7.82;;;;;;;14.52;52.50;94220.03;5029021;28;22152;-75
2021/09/21 00:05:50;;;;;;;9.50;7.57;;;;;;;14.11;53.33;94228.81;5030866;28;20337;-76
2021/09/21 00:08:17;;;;;;;9.48;7.97;;;;;;;13.98;53.93;94211.13;5030357;28;20048;-76
2021/09/21 00:10:42;;;;;;;9.93;7.75;;;;;;;14.13;53.63;94221.25;5027482;28;20048;-75
2021/09/21 00:13:08;;;;;;;11.18;8.52;;;;;;;14.21;53.17;94228.44;5033518;28;20033;-76
2021/09/21 00:15:33;;;;;;;12.38;8.65;;;;;;;14.04;53.67;94223.19;5032613;28;20033;-75
2021/09/21 00:17:59;;;;;;;10.57;8.23;;;;;;;13.89;53.87;94216.50;5032308;28;20033;-75
2021/09/21 00:20:24;;;;;;;12.63;8.65;;;;;;;13.49;55.12;94218.75;5031460;28;20602;-77
2021/09/21 00:22:50;;;;;;;12.68;9.32;;;;;;;13.23;56.25;94208.16;5032228;28;20045;-74
2021/09/21 00:25:16;;;;;;;12.27;9.43;;;;;;;13.04;56.86;94196.28;5031620;28;20496;-75
2021/09/21 00:27:43;;;;;;;13.23;9.90;;;;;;;13.07;56.85;94211.66;5027438;28;20044;-76
2021/09/21 00:30:11;;;;;;;11.55;8.55;;;;;;;13.23;56.56;94210.03;5030963;28;20037;-75
2021/09/21 00:32:36;;;;;;;12.75;9.38;;;;;;;13.32;56.52;94206.22;5029547;28;20065;-76
2021/09/21 00:35:02;;;;;;;12.48;8.73;;;;;;;13.38;56.45;94184.69;5029850;28;20700;-76
2021/09/21 00:37:28;;;;;;;11.05;8.55;;;;;;;13.44;55.83;94184.19;5030692;28;20602;-75
2021/09/21 00:39:53;;;;;;;12.82;9.00;;;;;;;13.72;55.50;94196.03;5031868;28;20179;-76
2021/09/21 00:42:28;;;;;;;11.60;8.73;;;;;;;13.92;55.03;94199.06;5031811;28;20854;-76
2021/09/21 00:44:57;;;;;;;;;;;;;;;13.92;54.90;94196.38;5037294;28;20068;-75
2021/09/21 00:47:23;;;;;;;9.82;6.93;;;;;;;13.91;54.64;94192.13;5034739;28;20375;-76
2021/09/21 00:49:49;;;;;;;9.02;7.15;;;;;;;14.16;53.98;94196.53;5034911;28;20140;-76
2021/09/21 00:52:15;;;;;;;8.20;6.15;;;;;;;14.14;53.48;94199.53;5031412;28;20084;-75
2021/09/21 00:54:40;;;;;;;11.70;6.22;;;;;;;14.11;52.83;94204.75;5034037;28;20123;-76
2021/09/21 00:57:06;;;;;;;7.47;6.45;;;;;;;14.10;52.52;94203.16;5033669;28;20037;-75
2021/09/21 00:59:31;;;;;;;6.18;5.13;;;;;;;14.05;52.71;94208.72;5039293;28;20475;-77
2021/09/21 01:01:56;;;;;;;6.53;5.53;;;;;;;13.94;52.64;94202.94;5034390;28;20024;-76
2021/09/21 01:04:22;;;;;;;7.88;6.03;;;;;;;13.79;53.31;94195.50;5034164;28;20395;-75
2021/09/21 01:06:47;;;;;;;7.60;6.32;;;;;;;13.67;53.82;94212.25;5035727;28;20040;-75
2021/09/21 01:09:18;;;;;;;7.45;6.35;;;;;;;13.65;53.82;94198.41;5031139;28;20069;-76
2021/09/21 01:11:49;;;;;;;9.13;7.20;;;;;;;13.57;54.45;94204.56;5049188;28;20045;-77
2021/09/21 01:14:15;;;;;;;8.50;6.63;;;;;;;13.61;54.14;94200.16;5033634;28;20033;-75
2021/09/21 01:16:40;;;;;;;9.80;6.70;;;;;;;13.70;54.07;94200.91;5036262;28;20619;-76
2021/09/21 01:19:07;;;;;;;9.63;7.82;;;;;;;13.81;53.82;94189.81;5035130;28;20041;-76
2021/09/21 01:21:32;;;;;;;10.00;7.68;;;;;;;14.13;53.56;94208.66;5033717;28;20041;-76
2021/09/21 01:23:58;;;;;;;11.18;7.85;;;;;;;14.11;53.49;94197.50;5033005;28;20041;-76
2021/09/21 01:26:24;;;;;;;9.80;7.72;;;;;;;13.97;54.11;94204.22;5035042;28;20565;-75
2021/09/21 01:28:51;;;;;;;11.38;8.27;;;;;;;13.86;53.87;94189.66;5037083;28;20111;-76
2021/09/21 01:31:17;;;;;;;10.13;7.68;;;;;;;13.96;54.00;94210.66;5035004;28;20128;-75
2021/09/21 01:33:49;;;;;;;11.25;8.80;;;;;;;13.81;54.54;94203.97;5036337;28;20510;-76
2021/09/21 01:36:16;;;;;;;11.20;8.25;;;;;;;13.64;54.83;94215.53;5037027;28;20514;-75
2021/09/21 01:38:41;;;;;;;12.35;8.60;;;;;;;13.48;55.23;94189.66;5035855;28;20040;-75
2021/09/21 01:41:07;;;;;;;14.43;9.13;;;;;;;13.41;55.62;94184.03;5036589;28;20033;-77
2021/09/21 01:43:32;;;;;;;11.48;8.65;;;;;;;13.51;55.77;94216.53;5031903;28;20360;-75
2021/09/21 01:45:57;;;;;;;12.27;8.98;;;;;;;13.46;55.92;94214.03;5035395;28;20096;-75
2021/09/21 01:48:23;;;;;;;12.48;9.60;;;;;;;13.50;55.82;94219.50;5034335;28;20045;-75
2021/09/21 01:58:51;;;;;;;13.68;9.35;;;;;;;13.63;55.56;94215.88;5034891;28;20040;-76
2021/09/21 02:01:20;;;;;;;15.48;8.50;;;;;;;13.67;55.36;94220.25;5035291;28;20029;-75
2021/09/21 02:03:47;;;;;;;10.77;8.23;;;;;;;13.71;55.23;94221.19;5037033;28;20041;-75
2021/09/21 02:06:13;;;;;;;11.40;8.18;;;;;;;13.73;54.98;94218.97;5028063;28;20318;-75
2021/09/21 02:08:38;;;;;;;12.98;9.02;;;;;;;13.74;54.99;94209.81;5034153;28;20041;-75
2021/09/21 02:11:04;;;;;;;14.95;9.73;;;;;;;13.82;54.67;94220.81;5035344;28;20486;-77
2021/09/21 02:13:29;;;;;;;11.40;8.57;;;;;;;13.96;54.60;94216.00;5029767;28;20037;-76
2021/09/21 02:15:56;;;;;;;12.88;8.57;;;;;;;13.98;54.18;94216.47;5035635;28;20068;-76
2021/09/21 02:18:21;;;;;;;12.15;8.88;;;;;;;13.86;53.87;94209.16;5033261;28;20080;-76
2021/09/21 02:20:47;;;;;;;9.70;7.18;;;;;;;13.92;53.95;94228.47;5036568;28;20143;-75
2021/09/21 02:23:12;;;;;;;10.82;7.55;;;;;;;13.73;54.11;94218.97;5034685;28;20087;-76
2021/09/21 02:25:38;;;;;;;10.32;8.18;;;;;;;13.59;54.16;94202.34;5036076;28;20072;-76
2021/09/21 02:28:03;;;;;;;12.70;8.75;;;;;;;13.79;53.52;94226.81;5035014;28;20044;-76
2021/09/21 02:30:29;;;;;;;12.10;9.15;;;;;;;13.85;53.53;94228.97;5033212;28;20187;-76
2021/09/21 02:32:54;;;;;;;10.40;7.38;;;;;;;13.65;53.64;94208.31;5030658;28;20202;-75
2021/09/21 02:35:20;;;;;;;9.55;7.22;;;;;;;13.61;54.17;94213.53;5034213;28;20468;-75
2021/09/21 02:37:46;;;;;;;12.15;8.00;;;;;;;13.58;53.96;94190.09;5034039;28;20049;-75
2021/09/21 02:40:14;;;;;;;9.30;7.63;;;;;;;13.60;54.38;94214.63;5037623;28;20593;-75
2021/09/21 02:42:41;;;;;;;10.73;8.25;;;;;;;13.33;54.60;94196.34;5036919;28;20367;-75
2021/09/21 02:45:07;;;;;;;8.27;6.82;;;;;;;13.34;54.96;94197.91;5034937;28;20025;-74
2021/09/21 02:47:33;;;;;;;9.30;7.25;;;;;;;13.44;54.75;94210.91;5035951;28;20045;-75
2021/09/21 02:49:58;;;;;;;8.18;6.18;;;;;;;13.38;54.23;94190.81;5034435;28;20387;-75
2021/09/21 02:52:24;;;;;;;7.68;6.65;;;;;;;13.67;53.62;94208.78;5033460;28;20277;-75
2021/09/21 02:54:49;;;;;;;7.50;5.45;;;;;;;13.62;52.91;94212.41;5031110;28;20111;-75
2021/09/21 02:57:15;;;;;;;6.43;5.15;;;;;;;13.61;53.06;94215.41;5033525;28;20044;-75
2021/09/21 02:59:40;;;;;;;5.60;4.13;;;;;;;13.44;52.69;94216.25;5051657;28;20672;-75
2021/09/21 03:02:06;;;;;;;5.82;4.82;;;;;;;13.33;53.08;94202.47;5048438;28;20056;-75
2021/09/21 03:04:36;;;;;;;6.63;5.35;;;;;;;13.34;53.11;94227.28;5028765;28;20059;-74
2021/09/21 03:07:05;;;;;;;6.43;3.92;;;;;;;13.23;52.49;94234.88;5032906;28;20583;-75
2021/09/21 03:12:22;;;;;;;3.38;2.35;;;;;;;12.89;52.22;94241.06;5034104;28;20067;-75
2021/09/21 03:17:32;;;;;;;4.55;4.05;;;;;;;12.87;53.28;94261.94;5032738;28;20308;-75
2021/09/21 03:20:00;;;;;;;4.43;3.65;;;;;;;12.75;53.37;94251.13;5031346;28;20037;-76
2021/09/21 03:22:29;;;;;;;4.65;3.45;;;;;;;12.77;53.60;94275.63;5033210;28;20124;-75
2021/09/21 03:24:55;;;;;;;4.95;3.63;;;;;;;12.67;53.11;94267.13;5030400;28;20604;-75
2021/09/21 03:27:21;;;;;;;4.82;3.25;;;;;;;12.62;53.43;94283.31;5033911;28;20037;-76
2021/09/21 03:29:47;;;;;;;3.95;3.35;;;;;;;12.59;53.90;94287.41;5034400;28;20033;-75
2021/09/21 03:32:13;;;;;;;4.30;2.95;;;;;;;12.69;53.72;94295.09;5030102;28;20562;-75
2021/09/21 03:34:39;;;;;;;3.45;2.50;;;;;;;12.67;53.23;94289.28;5030667;28;20404;-75
2021/09/21 03:37:09;;;;;;;3.75;3.28;;;;;;;12.65;53.75;94288.03;5034863;28;20041;-75
2021/09/21 03:39:35;;;;;;;4.60;3.80;;;;;;;12.54;54.19;94295.53;5030184;28;20438;-75
2021/09/21 03:42:04;;;;;;;5.70;4.20;;;;;;;12.55;54.63;94293.66;5028625;28;20049;-75
2021/09/21 03:44:30;;;;;;;5.82;4.20;;;;;;;12.36;55.08;94283.28;5035151;28;20033;-75
2021/09/21 03:46:55;;;;;;;5.45;4.45;;;;;;;12.54;55.12;94295.53;5035070;28;20040;-74
2021/09/21 03:49:22;;;;;;;6.15;4.53;;;;;;;12.69;54.91;94307.66;5032607;28;20103;-75
2021/09/21 03:51:47;;;;;;;6.75;5.30;;;;;;;12.88;54.25;94302.78;5033108;28;20037;-75
2021/09/21 03:54:13;;;;;;;7.00;4.65;;;;;;;12.97;53.93;94308.09;5032862;28;20588;-75
2021/09/21 03:56:39;;;;;;;6.10;3.95;;;;;;;13.08;53.67;94325.38;5031462;28;21169;-75
2021/09/21 03:59:05;;;;;;;5.93;3.72;;;;;;;13.07;52.87;94286.41;5031586;28;20276;-75
2021/09/21 04:01:31;;;;;;;4.85;3.50;;;;;;;13.25;52.56;94302.09;5031958;28;20037;-74
2021/09/21 04:03:57;;;;;;;8.18;3.60;;;;;;;13.44;52.25;94315.13;5028839;28;20033;-76
2021/09/21 04:06:22;;;;;;;6.38;4.07;;;;;;;13.37;52.26;94322.81;5034867;28;20041;-75
2021/09/21 04:08:48;;;;;;;3.97;3.47;;;;;;;13.22;52.38;94300.06;5033244;28;20557;-75
2021/09/21 04:11:13;;;;;;;4.68;4.03;;;;;;;13.35;52.21;94325.00;5030867;28;20033;-74
2021/09/21 04:13:38;;;;;;;6.75;4.28;;;;;;;13.32;51.85;94310.41;5032601;28;20550;-75
2021/09/21 04:16:04;;;;;;;3.75;3.40;;;;;;;13.06;52.00;94316.88;5031596;28;20060;-75
2021/09/21 04:18:30;;;;;;;5.10;3.28;;;;;;;13.07;51.81;94308.56;5038807;28;20044;-76
2021/09/21 04:20:55;;;;;;;4.65;3.85;;;;;;;12.81;52.49;94284.56;5034596;28;20033;-75
2021/09/21 04:23:24;;;;;;;5.03;3.92;;;;;;;12.88;52.73;94298.22;5035839;28;20041;-77
2021/09/21 04:25:49;;;;;;;5.35;3.33;;;;;;;13.05;52.79;94305.44;5029751;28;20074;-75
2021/09/21 04:28:16;;;;;;;6.18;3.67;;;;;;;13.12;52.17;94318.28;5034540;28;20025;-75
2021/09/21 04:30:43;;;;;;;4.15;3.45;;;;;;;12.98;52.20;94315.00;5036849;28;20068;-75
2021/09/21 04:33:09;;;;;;;4.88;3.72;;;;;;;12.89;52.49;94315.81;5033722;28;20096;-74
2021/09/21 04:35:37;;;;;;;5.47;4.43;;;;;;;12.75;52.28;94296.50;5033521;28;20607;-75
2021/09/21 04:38:02;;;;;;;5.53;4.28;;;;;;;12.78;52.64;94306.53;5035677;28;20036;-75
2021/09/21 04:40:28;;;;;;;5.13;4.10;;;;;;;12.37;52.60;94263.50;5034729;28;20407;-75
2021/09/21 04:42:53;;;;;;;5.85;4.82;;;;;;;12.48;53.36;94302.88;5036637;28;20051;-74
2021/09/21 04:45:18;;;;;;;5.80;4.25;;;;;;;12.38;53.91;94308.53;5036067;28;20048;-74
2021/09/21 04:47:44;;;;;;;6.38;4.10;;;;;;;12.42;53.37;94311.34;5034791;28;20519;-77
2021/09/21 04:50:09;;;;;;;4.53;4.10;;;;;;;12.32;53.36;94309.00;5035882;28;20141;-74
2021/09/21 04:52:35;;;;;;;5.93;4.50;;;;;;;12.24;53.63;94315.88;5032479;28;20208;-75
2021/09/21 04:55:00;;;;;;;7.22;4.30;;;;;;;12.39;52.80;94303.97;5036572;28;20043;-75
2021/09/21 04:57:26;;;;;;;5.55;4.63;;;;;;;12.66;51.63;94313.63;5034271;28;20037;-74
2021/09/21 04:59:51;;;;;;;9.85;5.32;;;;;;;12.60;51.57;94310.31;5036794;28;20127;-75
2021/09/21 05:02:16;;;;;;;5.38;4.75;;;;;;;12.61;50.98;94317.22;5036366;28;20029;-75
2021/09/21 05:04:42;;;;;;;4.72;3.78;;;;;;;12.48;51.64;94321.56;5038720;28;20170;-74
2021/09/21 05:07:07;;;;;;;5.68;4.50;;;;;;;12.45;51.56;94302.75;5029478;28;20506;-75
2021/09/21 05:09:33;;;;;;;4.43;4.03;;;;;;;12.45;51.74;94308.06;5036845;28;20120;-75
2021/09/21 05:11:58;;;;;;;5.05;4.55;;;;;;;12.55;51.83;94328.31;5032446;28;20047;-76
2021/09/21 05:14:24;;;;;;;5.10;4.07;;;;;;;12.50;51.91;94318.59;5035450;28;20498;-75
2021/09/21 05:16:49;;;;;;;5.15;4.50;;;;;;;12.56;52.16;94325.34;5036667;28;20074;-74
2021/09/21 05:19:15;;;;;;;6.53;5.03;;;;;;;12.76;52.39;94327.41;5033226;28;20067;-74
2021/09/21 05:21:41;;;;;;;5.00;4.10;;;;;;;13.00;51.26;94332.31;5034402;28;20037;-74
2021/09/21 05:24:07;;;;;;;5.03;4.32;;;;;;;12.93;51.39;94312.50;5033860;28;20135;-75
2021/09/21 05:26:32;;;;;;;5.20;4.47;;;;;;;13.20;51.48;94338.88;5034129;28;20103;-74
2021/09/21 05:28:58;;;;;;;5.13;4.05;;;;;;;13.19;50.98;94324.75;5036592;28;20068;-76
2021/09/21 05:31:23;;;;;;;5.97;5.05;;;;;;;13.02;51.55;94348.78;5011193;28;20459;-74
2021/09/21 05:33:49;;;;;;;6.85;4.82;;;;;;;12.81;52.16;94332.59;5028683;28;20411;-74
2021/09/21 05:36:14;;;;;;;6.75;4.75;;;;;;;12.68;52.20;94349.56;5027742;28;20288;-74
2021/09/21 05:38:40;;;;;;;5.05;4.55;;;;;;;12.59;53.09;94340.75;5014143;28;20268;-74
2021/09/21 05:41:05;;;;;;;6.45;5.18;;;;;;;12.69;52.54;94348.47;5014321;28;20032;-74
2021/09/21 05:43:31;;;;;;;5.68;4.80;;;;;;;12.62;52.96;94374.81;5012731;28;20595;-75
2021/09/21 05:45:57;;;;;;;5.40;4.85;;;;;;;12.53;53.19;94373.19;5015297;28;20042;-74
2021/09/21 05:48:22;;;;;;;5.75;5.00;;;;;;;12.54;52.88;94370.22;5015044;28;20099;-74
2021/09/21 05:50:48;;;;;;;7.50;5.18;;;;;;;12.46;52.77;94373.69;5014829;28;20033;-74
2021/09/21 05:53:13;;;;;;;7.88;5.82;;;;;;;12.36;52.69;94358.75;5011036;28;20034;-74
2021/09/21 05:55:39;;;;;;;7.00;5.50;;;;;;;12.55;52.16;94376.34;5016220;28;20459;-74
2021/09/21 05:58:04;;;;;;;7.25;5.10;;;;;;;12.59;52.39;94356.78;5013756;28;20034;-74
2021/09/21 06:00:31;;;;;;;7.28;6.57;;;;;;;12.79;52.28;94377.53;5017267;28;20045;-74
2021/09/21 06:02:57;;;;;;;5.97;5.38;;;;;;;12.92;51.93;94380.34;5017517;28;20119;-74
2021/09/21 06:05:22;;;;;;;6.88;5.65;;;;;;;12.84;51.77;94382.72;5011547;28;20136;-74
2021/09/21 06:07:49;;;;;;;6.13;5.53;;;;;;;12.92;51.76;94381.13;5013765;28;20534;-74
2021/09/21 06:10:18;;;;;;;8.68;5.97;;;;;;;12.87;52.00;94368.72;5014799;28;20566;-74
2021/09/21 06:12:43;;;;;;;7.00;5.85;;;;;;;12.84;51.47;94382.72;5014142;28;20084;-74
2021/09/21 06:15:11;;;;;;;5.82;5.22;;;;;;;12.57;51.61;94382.94;5014004;28;20161;-74
2021/09/21 06:17:37;;;;;;;8.13;6.10;;;;;;;12.54;51.88;94380.91;5013721;28;20038;-74
2021/09/21 06:20:04;;;;;;;6.32;5.50;;;;;;;12.56;52.00;94386.72;5015233;28;20031;-75
2021/09/21 06:22:30;;;;;;;8.90;6.40;;;;;;;12.54;52.04;94380.91;5012930;28;20120;-74
2021/09/21 06:24:55;;;;;;;6.68;5.85;;;;;;;12.59;52.13;94388.00;5009067;28;20083;-74
2021/09/21 06:27:20;;;;;;;7.68;5.80;;;;;;;12.73;52.29;94394.00;5031995;28;20044;-75
2021/09/21 06:29:46;;;;;;;12.32;6.43;;;;;;;12.57;52.08;94382.94;5007692;28;20041;-74
2021/09/21 06:32:11;;;;;;;7.82;5.47;;;;;;;12.73;51.76;94405.44;5013261;28;20036;-74
2021/09/21 06:34:37;;;;;;;13.07;6.55;;;;;;;12.62;52.06;94409.50;5010759;28;20029;-75
2021/09/21 06:37:02;;;;;;;8.40;5.88;;;;;;;12.44;52.22;94389.97;5012407;28;20559;-73
2021/09/21 06:39:28;;;;;;;8.32;6.72;;;;;;;12.58;52.33;94403.22;5013523;28;20033;-74
2021/09/21 06:41:53;;;;;;;12.32;6.63;;;;;;;12.51;52.52;94381.53;5018470;28;20565;-74
2021/09/21 06:44:18;;;;;;;7.90;6.05;;;;;;;12.61;52.19;94391.94;5001105;28;20026;-74
2021/09/21 06:46:44;;;;;;;7.65;6.57;;;;;;;12.77;52.17;94408.28;5012265;28;20033;-74
2021/09/21 06:49:10;;;;;;;10.20;7.22;;;;;;;12.85;52.25;94416.31;5011388;28;20096;-74
2021/09/21 06:51:35;;;;;;;7.38;6.25;;;;;;;12.98;52.15;94419.94;5006960;28;20408;-74
2021/09/21 06:54:01;;;;;;;7.10;6.40;;;;;;;12.96;51.67;94418.69;5009475;28;20047;-75
2021/09/21 06:56:29;;;;;;;9.10;6.70;;;;;;;12.75;51.39;94408.59;5010259;28;20688;-75
2021/09/21 06:58:56;;;;;;;8.05;6.70;;;;;;;12.68;52.04;94402.94;5032880;28;20033;-74
2021/09/21 07:01:23;;;;;;;6.85;5.57;;;;;;;12.92;51.91;94423.06;5013881;28;20184;-75
2021/09/21 07:03:49;;;;;;;10.23;6.90;;;;;;;12.91;51.94;94427.59;5011455;28;20705;-74
2021/09/21 07:06:14;;;;;;;8.30;7.40;;;;;;;12.89;51.72;94425.28;5010023;28;20045;-75
2021/09/21 07:08:39;;;;;;;10.35;7.03;;;;;;;12.90;52.17;94436.75;5015195;28;20053;-75
2021/09/21 07:11:05;;;;;;;11.23;7.05;;;;;;;12.81;51.94;94427.94;5010923;28;20017;-74
2021/09/21 07:13:30;;;;;;;11.15;6.30;;;;;;;12.84;51.27;94425.41;5009050;28;20041;-74
2021/09/21 07:15:56;;;;;;;6.95;6.03;;;;;;;12.78;51.91;94413.31;5014058;28;20049;-74
2021/09/21 07:18:21;;;;;;;8.43;6.88;;;;;;;12.96;51.75;94418.69;5012471;28;20045;-74
2021/09/21 07:20:46;;;;;;;7.80;6.38;;;;;;;12.98;51.94;94413.81;5012489;28;20069;-75
2021/09/21 07:23:12;;;;;;;10.20;7.00;;;;;;;13.21;51.40;94425.91;5014647;28;20033;-74
2021/09/21 07:25:37;;;;;;;8.35;7.25;;;;;;;13.47;50.82;94440.06;5010503;28;20120;-74
2021/09/21 07:28:03;;;;;;;8.65;6.82;;;;;;;13.32;50.85;94438.66;5011731;28;20049;-74
2021/09/21 07:30:30;;;;;;;10.90;6.97;;;;;;;13.33;51.00;94439.44;5014613;28;20532;-74
2021/09/21 07:32:56;;;;;;;8.43;7.10;;;;;;;13.19;50.37;94454.84;5004046;28;20420;-74
2021/09/21 07:35:21;;;;;;;9.57;7.35;;;;;;;13.18;50.42;94443.34;5012654;28;20487;-76
2021/09/21 07:37:47;;;;;;;7.60;6.75;;;;;;;13.30;50.30;94462.19;5012245;28;20563;-75
2021/09/21 07:40:12;;;;;;;9.30;8.10;;;;;;;13.25;50.76;94469.59;5012231;28;20076;-75
2021/09/21 07:42:38;;;;;;;11.75;8.20;;;;;;;13.30;50.83;94472.09;5013465;28;20475;-74
2021/09/21 07:45:08;;;;;;;8.45;7.55;;;;;;;13.50;50.15;94481.38;5010856;28;20144;-75
2021/09/21 07:47:33;;;;;;;9.40;7.65;;;;;;;13.66;50.01;94479.84;5011069;28;20049;-75
2021/09/21 07:49:59;;;;;;;11.30;8.73;;;;;;;13.57;50.00;94485.16;5009346;28;20099;-75
2021/09/21 07:52:26;;;;;;;9.90;7.85;;;;;;;13.36;50.10;94472.72;5015836;28;20038;-75
2021/09/21 07:54:52;;;;;;;8.45;7.45;;;;;;;13.26;50.28;94460.47;5016813;28;20041;-75
2021/09/21 07:57:17;;;;;;;10.15;8.52;;;;;;;13.52;50.66;94479.97;5016038;28;20261;-75
2021/09/21 07:59:43;;;;;;;10.82;8.38;;;;;;;13.50;50.60;94486.72;5012134;28;20112;-76
2021/09/21 08:02:10;;;;;;;8.90;7.85;;;;;;;13.37;50.35;94472.44;5017699;28;20393;-75
2021/09/21 08:04:37;;;;;;;9.32;8.10;;;;;;;13.70;50.30;94486.13;5015098;28;20038;-77
2021/09/21 08:07:06;;;;;;;8.75;7.80;;;;;;;13.51;50.13;94466.91;5014368;28;20636;-75
2021/09/21 08:09:32;;;;;;;9.13;7.90;;;;;;;13.80;50.42;94487.69;5015401;28;20037;-75
2021/09/21 08:11:57;;;;;;;14.35;8.00;;;;;;;13.89;49.80;94491.13;5011880;28;20057;-78
2021/09/21 08:14:23;;;;;;;8.73;7.18;;;;;;;13.97;49.94;94491.13;5015833;28;20626;-75
2021/09/21 08:16:48;;;;;;;13.30;8.07;;;;;;;13.74;50.02;94498.53;5013741;28;20040;-76
2021/09/21 08:19:14;;;;;;;11.77;9.18;;;;;;;13.75;49.92;94478.72;5013412;28;20041;-76
2021/09/21 08:21:40;;;;;;;13.25;8.52;;;;;;;13.80;49.50;94474.31;5011185;28;20072;-76
2021/09/21 08:24:06;;;;;;;11.90;8.68;;;;;;;13.87;50.42;94496.03;5012389;28;20042;-76
2021/09/21 08:26:32;;;;;;;14.90;10.57;;;;;;;14.09;50.17;94488.56;5016612;28;20189;-77
2021/09/21 08:28:58;;;;;;;14.40;8.48;;;;;;;14.17;49.69;94489.69;5014510;28;20030;-76
2021/09/21 08:31:24;;;;;;;11.30;8.32;;;;;;;13.93;49.76;94482.19;5016927;28;20041;-76
2021/09/21 08:33:50;;;;;;;9.82;7.97;;;;;;;13.69;49.87;94447.91;5015102;28;20616;-77
2021/09/21 08:36:15;;;;;;;12.13;9.05;;;;;;;14.03;49.94;94481.81;5014969;28;20045;-76
2021/09/21 08:38:41;;;;;;;10.32;8.68;;;;;;;14.18;50.32;94480.53;5013830;28;20060;-76
2021/09/21 08:41:07;;;;;;;10.05;8.55;;;;;;;14.17;49.81;94473.63;5017944;28;20079;-75
2021/09/21 08:43:32;;;;;;;11.65;8.38;;;;;;;14.35;50.17;94475.13;5013618;28;20041;-76
2021/09/21 08:45:58;;;;;;;8.70;7.85;;;;;;;14.51;48.76;94473.50;5014487;28;20049;-75
2021/09/21 08:48:24;;;;;;;11.55;7.75;;;;;;;14.58;48.67;94473.81;5015734;28;20578;-75
2021/09/21 08:50:51;;;;;;;10.43;7.72;;;;;;;14.55;47.85;94463.75;5015575;28;20490;-76
2021/09/21 08:53:17;;;;;;;9.15;8.25;;;;;;;14.76;48.23;94484.44;5034256;28;20452;-75
2021/09/21 08:55:42;;;;;;;9.98;8.05;;;;;;;14.77;48.17;94480.63;5015185;28;20029;-75
2021/09/21 08:58:08;;;;;;;11.30;7.75;;;;;;;14.92;48.54;94461.34;5018865;28;20040;-75
2021/09/21 09:00:35;;;;;;;11.88;8.57;;;;;;;15.04;48.23;94464.91;5016038;28;20579;-76
2021/09/21 09:03:12;;;;;;;8.93;7.63;;;;;;;15.15;47.70;94476.03;5017271;28;20053;-76
2021/09/21 09:06:04;;;;;;;9.85;7.10;;;;;;;15.21;47.71;94476.59;5014715;28;20046;-76
2021/09/21 09:08:36;;;;;;;8.45;7.10;;;;;;;15.16;47.89;94471.44;5013150;28;20056;-77
2021/09/21 09:11:23;;;;;;;8.10;6.60;;;;;;;15.36;47.23;94471.44;5016326;28;20041;-77
2021/09/21 09:13:57;;;;;;;8.77;7.03;;;;;;;15.39;47.64;94454.72;5037957;28;20033;-76
2021/09/21 09:16:31;;;;;;;9.10;6.65;;;;;;;15.51;46.85;94467.41;5015156;28;20137;-76
2021/09/21 09:19:08;;;;;;;8.80;7.50;;;;;;;15.49;47.14;94466.19;5015070;28;20065;-75
2021/09/21 09:21:37;;;;;;;6.97;6.28;;;;;;;15.24;46.97;94458.00;5014666;28;20099;-76
2021/09/21 09:24:04;;;;;;;7.90;6.53;;;;;;;15.33;47.53;94471.31;5015447;28;20042;-77
2021/09/21 09:26:34;;;;;;;7.88;5.60;;;;;;;15.24;46.99;94473.28;5015457;28;20029;-75
2021/09/21 09:29:00;;;;;;;7.22;5.75;;;;;;;15.14;47.26;94471.00;5016146;28;20327;-75
2021/09/21 09:31:27;;;;;;;6.68;5.75;;;;;;;15.15;47.00;94473.34;5015679;28;20087;-76
2021/09/21 09:34:07;;;;;;;6.90;5.80;;;;;;;15.22;47.12;94478.97;5013885;28;20604;-76
2021/09/21 09:36:42;;;;;;;7.38;6.28;;;;;;;15.28;46.70;94480.34;5013265;28;20091;-73
2021/09/21 09:39:08;;;;;;;7.00;5.60;;;;;;;15.11;46.24;94463.63;5015109;28;20086;-73
2021/09/21 09:41:41;;;;;;;8.90;5.35;;;;;;;15.15;46.20;94481.38;5015433;28;20041;-75
2021/09/21 09:44:13;;;;;;;6.50;5.20;;;;;;;15.30;46.28;94488.81;5012382;28;20025;-74
2021/09/21 09:46:47;;;;;;;6.55;5.13;;;;;;;15.15;47.33;94476.03;5033614;28;20450;-74
2021/09/21 09:49:13;;;;;;;7.50;6.32;;;;;;;15.24;46.85;94473.28;5018568;28;20042;-74
2021/09/21 09:51:50;;;;;;;6.68;4.80;;;;;;;15.33;46.88;94476.69;5008977;28;20060;-75
2021/09/21 09:54:17;;;;;;;6.95;5.93;;;;;;;15.26;47.12;94487.13;5015385;28;20056;-74
2021/09/21 09:56:45;;;;;;;9.75;5.78;;;;;;;15.20;47.13;94462.44;5013574;28;20400;-75
2021/09/21 09:59:13;;;;;;;6.60;5.38;;;;;;;15.31;47.35;94490.41;5016514;28;20396;-75
2021/09/21 10:01:39;;;;;;;8.00;5.18;;;;;;;15.32;46.88;94485.84;5014551;28;20049;-74
2021/09/21 10:04:04;;;;;;;7.30;5.65;;;;;;;15.43;46.26;94482.44;5015591;28;20510;-74
2021/09/21 10:06:31;;;;;;;6.57;5.63;;;;;;;15.46;46.04;94481.03;5013373;28;20037;-75
2021/09/21 10:08:57;;;;;;;5.72;4.85;;;;;;;15.58;46.88;94485.66;5010736;28;20045;-74
2021/09/21 10:11:25;;;;;;;6.20;4.72;;;;;;;15.63;46.79;94493.53;5013098;28;20033;-75
2021/09/21 10:13:51;;;;;;;7.68;5.57;;;;;;;15.70;45.87;94485.72;5015524;28;20033;-75
2021/09/21 10:16:17;;;;;;;7.40;4.90;;;;;;;15.45;45.51;94468.72;5014581;28;20394;-74
2021/09/21 10:18:44;;;;;;;8.40;4.85;;;;;;;15.38;46.19;94474.59;5013326;28;20339;-75
2021/09/21 10:21:10;;;;;;;6.25;4.65;;;;;;;15.35;45.83;94442.31;5014305;28;20401;-74
2021/09/21 10:23:42;;;;;;;5.18;4.68;;;;;;;15.67;45.48;94484.50;5015508;28;20087;-74
2021/09/21 10:26:19;;;;;;;7.05;4.93;;;;;;;15.74;44.98;94478.59;5014081;28;20395;-75
2021/09/21 10:28:46;;;;;;;7.53;4.45;;;;;;;15.86;44.99;94495.53;5013493;28;20041;-74
2021/09/21 10:31:15;;;;;;;5.43;4.90;;;;;;;15.60;44.93;94465.44;5016899;28;20091;-74
2021/09/21 10:33:41;;;;;;;6.18;4.32;;;;;;;15.81;45.32;94486.88;5012925;28;20486;-74
2021/09/21 10:36:21;;;;;;;5.90;4.45;;;;;;;15.76;44.94;94479.03;5013453;28;20396;-75
2021/09/21 10:38:58;;;;;;;5.22;4.18;;;;;;;15.81;44.62;94484.22;5017595;28;20051;-75
2021/09/21 10:41:26;;;;;;;4.38;3.85;;;;;;;15.65;45.28;94488.59;5033373;28;20479;-74
2021/09/21 10:44:18;;;;;;;5.95;4.13;;;;;;;15.60;45.19;94489.56;5012009;28;20033;-75
2021/09/21 10:46:50;;;;;;;5.35;3.80;;;;;;;15.71;44.98;94493.44;5031610;28;20040;-75
2021/09/21 10:49:23;;;;;;;4.22;3.78;;;;;;;15.87;45.78;94493.63;5017829;28;20096;-76
2021/09/21 10:51:49;;;;;;;4.38;3.55;;;;;;;15.98;44.80;94491.31;5013006;28;20038;-74
2021/09/21 10:54:15;;;;;;;7.10;4.18;;;;;;;15.96;44.78;94483.59;5015682;28;20515;-75
2021/09/21 10:56:40;;;;;;;5.40;4.88;;;;;;;16.02;44.92;94493.00;5009887;28;20045;-74
2021/09/21 10:59:14;;;;;;;7.35;4.40;;;;;;;16.19;44.62;94487.47;5015890;28;20026;-75
2021/09/21 11:01:48;;;;;;;6.45;4.22;;;;;;;16.17;44.13;94484.34;5013390;28;20451;-75
2021/09/21 11:04:14;;;;;;;6.10;4.30;;;;;;;16.25;44.03;94475.41;5014769;28;20046;-75
2021/09/21 11:06:44;;;;;;;5.55;3.75;;;;;;;16.23;43.69;94469.56;5012144;28;20459;-75
2021/09/21 11:09:09;;;;;;;6.50;3.75;;;;;;;15.87;44.00;94453.38;5015977;28;20042;-75
2021/09/21 11:11:35;;;;;;;4.45;3.53;;;;;;;15.72;44.22;94456.69;5012354;28;20519;-74
2021/09/21 11:14:00;;;;;;;3.80;2.80;;;;;;;15.57;44.12;94449.25;5014152;28;20500;-75
2021/09/21 11:16:28;;;;;;;3.60;3.10;;;;;;;15.78;45.01;94482.19;5010253;28;20079;-74
2021/09/21 11:18:55;;;;;;;3.38;2.42;;;;;;;15.75;44.22;94451.44;5010086;28;20492;-75
2021/09/21 11:21:20;;;;;;;3.60;2.50;;;;;;;15.75;43.45;94445.28;5012394;28;20040;-75
2021/09/21 11:23:46;;;;;;;4.97;2.97;;;;;;;15.91;44.24;94459.66;5015479;28;20056;-74
2021/09/21 11:26:14;;;;;;;3.35;2.65;;;;;;;15.61;44.00;94442.91;5015993;28;20044;-74
2021/09/21 11:28:45;;;;;;;4.07;2.70;;;;;;;15.78;43.85;94441.97;5013246;28;20045;-75
2021/09/21 11:31:10;;;;;;;10.35;2.42;;;;;;;15.74;43.71;94441.06;5016805;28;20049;-74
2021/09/21 11:33:38;;;;;;;4.22;2.20;;;;;;;15.83;43.36;94436.41;5014020;28;20045;-74
2021/09/21 11:36:07;;;;;;;3.55;2.90;;;;;;;15.99;43.76;94460.69;5016225;28;20041;-75
2021/09/21 11:38:35;;;;;;;3.33;2.45;;;;;;;16.11;44.00;94453.47;5013367;28;20061;-74
2021/09/21 11:41:01;;;;;;;4.97;3.50;;;;;;;16.12;43.62;94443.50;5016460;28;20084;-75
2021/09/21 11:43:29;;;;;;;5.93;3.15;;;;;;;16.18;43.65;94448.31;5014169;28;20134;-75